createdAt,value
2023-01-19T00:01:48.265Z,13.90
2023-01-19T00:03:50.207Z,11.73
2023-01-19T00:05:52.504Z,10.60
2023-01-19T00:07:53.907Z,12.30
2023-01-19T00:09:55.270Z,13.20
2023-01-19T00:11:56.632Z,13.38
2023-01-19T00:13:58.838Z,10.10
2023-01-19T00:16:00.217Z,11.85
2023-01-19T00:18:01.671Z,13.35
2023-01-19T00:20:03.913Z,11.90
2023-01-19T00:22:07.931Z,11.82
2023-01-19T00:24:10.396Z,11.98
2023-01-19T00:26:12.055Z,10.07
2023-01-19T00:28:16.245Z,13.32
2023-01-19T00:30:18.228Z,7.70
2023-01-19T00:32:20.291Z,13.90
2023-01-19T00:34:21.699Z,13.32
2023-01-19T00:36:23.093Z,10.98
2023-01-19T00:38:24.480Z,11.00
2023-01-19T00:40:25.863Z,12.98
2023-01-19T00:42:45.839Z,11.77
2023-01-19T00:44:47.189Z,12.68
2023-01-19T00:46:48.558Z,13.50
2023-01-19T00:48:49.961Z,10.75
2023-01-19T00:50:51.396Z,8.50
2023-01-19T00:52:54.546Z,14.07
2023-01-19T00:54:55.907Z,13.23
2023-01-19T00:56:57.280Z,12.10
2023-01-19T00:58:58.722Z,12.48
2023-01-19T01:01:03.714Z,12.88
2023-01-19T01:03:05.501Z,11.77
2023-01-19T01:05:08.549Z,11.38
2023-01-19T01:07:10.041Z,13.13
2023-01-19T01:09:14.397Z,15.18
2023-01-19T01:11:15.810Z,12.60
2023-01-19T01:13:20.267Z,11.60
2023-01-19T01:15:26.888Z,15.52
2023-01-19T01:17:28.268Z,13.55
2023-01-19T01:19:29.942Z,13.77
2023-01-19T01:21:31.381Z,11.30
2023-01-19T01:23:34.253Z,10.35
2023-01-19T01:25:37.748Z,11.23
2023-01-19T01:27:39.148Z,13.57
2023-01-19T01:29:42.648Z,13.45
2023-01-19T01:31:44.065Z,10.63
2023-01-19T01:33:45.838Z,10.82
2023-01-19T01:35:49.560Z,14.60
2023-01-19T01:37:51.096Z,12.20
2023-01-19T01:39:52.526Z,11.80
2023-01-19T01:41:54.032Z,10.43
2023-01-19T01:44:01.496Z,12.10
2023-01-19T01:46:02.973Z,13.77
2023-01-19T01:48:18.453Z,10.25
2023-01-19T01:50:26.672Z,14.27
2023-01-19T01:52:32.297Z,12.95
2023-01-19T01:54:34.073Z,16.20
2023-01-19T01:56:40.294Z,12.48
2023-01-19T01:58:42.126Z,13.93
2023-01-19T02:01:02.530Z,13.07
2023-01-19T02:03:04.389Z,15.32
2023-01-19T02:05:34.546Z,13.25
2023-01-19T02:08:16.487Z,13.35
2023-01-19T02:10:37.465Z,13.60
2023-01-19T02:12:57.820Z,14.80
2023-01-19T02:14:59.631Z,12.60
2023-01-19T02:17:01.146Z,14.73
2023-01-19T02:19:04.241Z,18.92
2023-01-19T02:21:11.577Z,12.73
2023-01-19T02:23:22.890Z,14.48
2023-01-19T02:25:25.140Z,14.30
2023-01-19T02:27:26.599Z,10.90
2023-01-19T02:29:28.751Z,13.73
2023-01-19T02:31:31.854Z,12.25
2023-01-19T02:33:33.597Z,11.80
2023-01-19T02:35:38.181Z,15.20
2023-01-19T02:37:40.984Z,15.05
2023-01-19T02:39:58.874Z,14.13
2023-01-19T02:42:05.996Z,15.05
2023-01-19T02:44:08.979Z,14.68
2023-01-19T02:46:10.757Z,13.80
2023-01-19T02:48:12.161Z,16.52
2023-01-19T02:50:38.203Z,14.95
2023-01-19T02:52:39.633Z,13.20
2023-01-19T02:54:50.085Z,14.10
2023-01-19T02:57:09.799Z,11.55
2023-01-19T02:59:48.257Z,9.88
2023-01-19T03:02:19.481Z,8.73
2023-01-19T03:04:57.464Z,11.55
2023-01-19T03:07:13.719Z,11.75
2023-01-19T03:09:21.171Z,10.43
2023-01-19T03:11:26.870Z,13.18
2023-01-19T03:13:53.475Z,13.95
2023-01-19T03:16:11.663Z,9.13
2023-01-19T03:18:15.039Z,13.18
2023-01-19T03:20:24.655Z,9.10
2023-01-19T03:22:29.254Z,7.43
2023-01-19T03:24:33.566Z,10.25
2023-01-19T03:26:42.978Z,10.35
2023-01-19T03:28:47.395Z,11.25
2023-01-19T03:30:57.914Z,12.65
2023-01-19T03:33:11.164Z,9.85
2023-01-19T03:35:15.957Z,11.80
2023-01-19T03:37:21.312Z,7.85
2023-01-19T03:39:24.591Z,11.30
2023-01-19T03:41:28.397Z,9.68
2023-01-19T03:43:31.727Z,9.60
2023-01-19T03:45:36.737Z,9.43
2023-01-19T03:47:38.441Z,11.80
2023-01-19T03:49:42.938Z,11.93
2023-01-19T03:51:44.674Z,9.32
2023-01-19T03:53:46.761Z,11.73
2023-01-19T03:55:50.506Z,9.45
2023-01-19T03:57:51.860Z,9.52
2023-01-19T03:59:53.537Z,10.05
2023-01-19T04:01:54.894Z,11.07
2023-01-19T04:03:56.343Z,8.40
2023-01-19T04:05:57.843Z,6.63
2023-01-19T04:07:59.234Z,11.10
2023-01-19T04:10:00.638Z,10.65
2023-01-19T04:12:02.261Z,9.48
2023-01-19T04:14:04.014Z,9.05
2023-01-19T04:16:06.499Z,7.32
2023-01-19T04:18:08.706Z,15.93
2023-01-19T04:20:10.637Z,9.82
2023-01-19T04:22:12.032Z,6.90
2023-01-19T04:24:13.586Z,8.68
2023-01-19T04:26:15.094Z,10.85
2023-01-19T04:28:16.649Z,10.23
2023-01-19T04:30:18.477Z,11.90
2023-01-19T04:32:19.944Z,16.58
2023-01-19T04:34:21.304Z,9.98
2023-01-19T04:36:22.887Z,11.40
2023-01-19T04:38:25.253Z,9.15
2023-01-19T04:40:26.606Z,10.65
2023-01-19T04:42:28.016Z,10.55
2023-01-19T04:44:29.494Z,9.55
2023-01-19T04:46:30.942Z,8.85
2023-01-19T04:48:32.774Z,9.60
2023-01-19T04:50:34.195Z,10.65
2023-01-19T04:52:35.993Z,10.68
2023-01-19T04:54:37.446Z,9.27
2023-01-19T04:56:40.769Z,10.52
2023-01-19T04:58:42.174Z,10.18
2023-01-19T05:00:43.561Z,11.18
2023-01-19T05:02:45.318Z,10.20
2023-01-19T05:04:46.748Z,10.52
2023-01-19T05:06:48.447Z,9.57
2023-01-19T05:08:49.827Z,8.30
2023-01-19T05:10:51.180Z,8.75
2023-01-19T05:12:52.846Z,10.15
2023-01-19T05:14:54.256Z,12.40
2023-01-19T05:16:55.612Z,11.30
2023-01-19T05:18:57.002Z,10.15
2023-01-19T05:20:58.358Z,9.27
2023-01-19T05:23:00.197Z,9.13
2023-01-19T05:25:01.951Z,12.57
2023-01-19T05:27:03.798Z,10.18
2023-01-19T05:29:05.236Z,10.32
2023-01-19T05:31:06.865Z,7.70
2023-01-19T05:33:08.369Z,9.80
2023-01-19T05:35:10.175Z,12.40
2023-01-19T05:37:11.555Z,9.63
2023-01-19T05:39:14.197Z,13.90
2023-01-19T05:41:15.562Z,10.27
2023-01-19T05:43:16.943Z,9.85
2023-01-19T05:45:18.307Z,10.73
2023-01-19T05:47:19.732Z,11.45
2023-01-19T05:49:21.128Z,8.48
2023-01-19T05:51:22.509Z,7.57
2023-01-19T05:53:23.929Z,9.77
2023-01-19T05:55:25.947Z,7.85
2023-01-19T05:57:27.290Z,8.18
2023-01-19T05:59:28.772Z,7.93
2023-01-19T06:01:30.213Z,9.98
2023-01-19T06:03:32.759Z,7.97
2023-01-19T06:05:35.463Z,8.60
2023-01-19T06:07:36.817Z,8.75
2023-01-19T06:09:38.264Z,6.47
2023-01-19T06:11:39.715Z,8.95
2023-01-19T06:13:42.136Z,4.55
2023-01-19T06:15:44.932Z,11.18
2023-01-19T06:17:46.350Z,7.47
2023-01-19T06:19:47.717Z,7.78
2023-01-19T06:21:52.047Z,6.75
2023-01-19T06:23:53.510Z,5.93
2023-01-19T06:25:55.085Z,9.18
2023-01-19T06:27:56.505Z,7.88
2023-01-19T06:29:57.841Z,4.55
2023-01-19T06:31:59.291Z,7.55
2023-01-19T06:34:00.982Z,9.18
2023-01-19T06:36:05.600Z,7.10
2023-01-19T06:38:07.026Z,7.63
2023-01-19T06:40:09.189Z,7.25
2023-01-19T06:42:11.290Z,6.70
2023-01-19T06:44:12.809Z,6.95
2023-01-19T06:46:14.319Z,5.30
2023-01-19T06:48:16.515Z,7.53
2023-01-19T06:50:18.005Z,4.75
2023-01-19T06:52:20.447Z,4.70
2023-01-19T06:54:22.278Z,6.97
2023-01-19T06:56:23.653Z,6.35
2023-01-19T06:58:25.316Z,5.68
2023-01-19T07:00:27.828Z,6.50
2023-01-19T07:02:29.270Z,4.97
2023-01-19T07:04:30.748Z,5.05
2023-01-19T07:06:32.233Z,5.63
2023-01-19T07:08:35.104Z,6.00
2023-01-19T07:11:26.478Z,3.80
2023-01-19T07:12:59.088Z,5.35
2023-01-19T07:15:00.857Z,5.18
2023-01-19T07:17:02.918Z,4.07
2023-01-19T07:19:04.644Z,4.28
2023-01-19T07:21:07.054Z,3.88
2023-01-19T07:23:09.350Z,7.80
2023-01-19T07:25:10.733Z,4.38
2023-01-19T07:27:12.250Z,3.75
2023-01-19T07:29:13.988Z,3.38
2023-01-19T07:31:16.097Z,3.63
2023-01-19T07:33:17.565Z,3.38
2023-01-19T07:35:18.907Z,3.67
2023-01-19T07:37:20.350Z,3.42
2023-01-19T07:39:21.834Z,3.17
2023-01-19T07:41:23.461Z,2.97
2023-01-19T07:43:24.891Z,2.55
2023-01-19T07:45:28.006Z,3.90
2023-01-19T07:47:29.927Z,3.20
2023-01-19T07:49:31.307Z,2.90
2023-01-19T07:51:32.856Z,4.25
2023-01-19T07:53:34.587Z,2.88
2023-01-19T07:55:36.246Z,2.13
2023-01-19T07:57:37.717Z,3.22
2023-01-19T07:59:39.142Z,3.60
2023-01-19T08:01:40.578Z,3.30
2023-01-19T08:03:42.410Z,3.33
2023-01-19T08:05:44.706Z,4.80
2023-01-19T08:07:46.538Z,3.58
2023-01-19T08:09:48.070Z,4.15
2023-01-19T08:11:49.486Z,3.22
2023-01-19T08:13:50.913Z,5.40
2023-01-19T08:15:54.026Z,4.03
2023-01-19T08:18:00.314Z,5.57
2023-01-19T08:20:01.665Z,3.28
2023-01-19T08:22:03.707Z,4.97
2023-01-19T08:24:05.429Z,5.68
2023-01-19T08:26:30.497Z,6.45
2023-01-19T08:28:32.064Z,4.95
2023-01-19T08:30:34.252Z,7.50
2023-01-19T08:32:35.906Z,7.57
2023-01-19T08:34:37.240Z,8.15
2023-01-19T08:36:38.649Z,5.93
2023-01-19T08:38:43.746Z,6.63
2023-01-19T08:40:45.421Z,10.82
2023-01-19T08:42:46.877Z,6.80
2023-01-19T08:44:57.665Z,9.43
2023-01-19T08:47:00.639Z,9.00
2023-01-19T08:49:02.613Z,8.13
2023-01-19T08:51:04.106Z,8.15
2023-01-19T08:53:08.557Z,8.25
2023-01-19T08:55:11.169Z,9.73
2023-01-19T08:57:12.614Z,8.35
2023-01-19T08:59:14.268Z,12.75
2023-01-19T09:01:19.897Z,10.48
2023-01-19T09:03:25.493Z,11.05
2023-01-19T09:05:27.644Z,9.63
2023-01-19T09:07:30.604Z,7.47
2023-01-19T09:09:39.769Z,9.30
2023-01-19T09:13:47.453Z,10.77
2023-01-19T09:15:50.078Z,12.07
2023-01-19T09:17:53.207Z,9.88
2023-01-19T09:19:54.622Z,10.82
2023-01-19T09:21:56.110Z,8.45
2023-01-19T09:23:57.789Z,12.30
2023-01-19T09:26:01.962Z,10.43
2023-01-19T09:28:04.683Z,13.35
2023-01-19T09:30:07.297Z,12.40
2023-01-19T09:32:11.066Z,12.63
2023-01-19T09:34:12.611Z,13.15
2023-01-19T09:36:14.005Z,13.13
2023-01-19T09:38:22.489Z,14.75
2023-01-19T09:40:24.337Z,19.65
2023-01-19T09:42:37.536Z,13.77
2023-01-19T09:44:42.112Z,13.18
2023-01-19T09:46:43.509Z,14.95
2023-01-19T09:49:04.805Z,12.93
2023-01-19T09:51:13.654Z,12.45
2023-01-19T09:53:29.782Z,12.88
2023-01-19T09:55:31.247Z,17.80
2023-01-19T09:57:33.783Z,13.30
2023-01-19T09:59:36.604Z,19.10
2023-01-19T10:01:56.863Z,18.08
2023-01-19T10:04:19.692Z,13.65
2023-01-19T10:06:23.104Z,17.10
2023-01-19T10:08:45.604Z,21.40
2023-01-19T10:10:53.202Z,16.75
2023-01-19T10:13:24.959Z,15.68
2023-01-19T10:16:08.023Z,16.95
2023-01-19T10:18:47.616Z,16.13
2023-01-19T10:21:00.932Z,20.33
2023-01-19T10:23:05.964Z,21.25
2023-01-19T10:25:15.734Z,18.23
2023-01-19T10:27:19.013Z,16.63
2023-01-19T10:29:37.786Z,16.80
2023-01-19T10:31:42.229Z,18.95
2023-01-19T10:33:43.677Z,17.17
2023-01-19T10:35:48.066Z,17.08
2023-01-19T10:37:50.474Z,15.52
2023-01-19T10:39:55.587Z,20.25
2023-01-19T10:42:00.536Z,16.25
2023-01-19T10:44:04.243Z,17.77
2023-01-19T10:46:08.108Z,21.05
2023-01-19T10:48:12.247Z,15.27
2023-01-19T10:50:37.397Z,17.75
2023-01-19T10:52:44.600Z,16.13
2023-01-19T10:54:48.436Z,14.25
2023-01-19T10:56:55.532Z,17.27
2023-01-19T10:59:00.120Z,22.80
2023-01-19T11:01:18.783Z,20.67
2023-01-19T11:03:30.348Z,18.52
2023-01-19T11:05:35.449Z,24.63
2023-01-19T11:07:37.264Z,19.50
2023-01-19T11:09:38.646Z,20.35
2023-01-19T11:11:49.894Z,23.83
2023-01-19T11:14:13.686Z,19.98
2023-01-19T11:16:31.394Z,19.25
2023-01-19T11:18:43.223Z,24.95
2023-01-19T11:20:50.818Z,22.20
2023-01-19T11:23:32.065Z,22.98
2023-01-19T11:25:35.780Z,22.08
2023-01-19T11:27:37.816Z,23.58
2023-01-19T11:29:39.266Z,17.42
2023-01-19T11:31:41.028Z,23.20
2023-01-19T11:33:47.077Z,23.00
2023-01-19T11:35:51.159Z,23.13
2023-01-19T11:38:05.442Z,23.15
2023-01-19T11:40:08.828Z,25.85
2023-01-19T11:42:13.017Z,23.00
2023-01-19T11:44:39.130Z,26.92
2023-01-19T11:48:56.542Z,24.23
2023-01-19T11:51:02.418Z,26.02
2023-01-19T11:53:16.646Z,27.73
2023-01-19T11:55:26.724Z,28.70
2023-01-19T11:57:28.202Z,27.45
2023-01-19T11:59:29.712Z,23.38
2023-01-19T12:01:34.419Z,27.35
2023-01-19T12:03:44.073Z,25.67
2023-01-19T12:05:51.046Z,32.28
2023-01-19T12:07:54.020Z,28.55
2023-01-19T12:10:06.363Z,35.08
2023-01-19T12:12:15.268Z,28.67
2023-01-19T12:14:23.484Z,30.75
2023-01-19T12:16:29.050Z,30.73
2023-01-19T12:18:38.355Z,28.73
2023-01-19T12:20:44.473Z,29.75
2023-01-19T12:22:54.211Z,34.17
2023-01-19T12:25:05.098Z,29.70
2023-01-19T12:27:30.359Z,33.38
2023-01-19T12:29:35.538Z,37.38
2023-01-19T12:31:38.320Z,32.00
2023-01-19T12:33:40.419Z,36.60
2023-01-19T12:35:58.478Z,31.95
2023-01-19T12:37:59.843Z,31.13
2023-01-19T12:40:17.400Z,34.45
2023-01-19T12:42:21.236Z,32.33
2023-01-19T12:44:27.689Z,30.95
2023-01-19T12:46:30.895Z,35.28
2023-01-19T12:48:32.774Z,29.63
2023-01-19T12:50:38.017Z,32.80
2023-01-19T12:52:49.327Z,27.75
2023-01-19T12:54:50.673Z,31.60
2023-01-19T12:56:58.431Z,27.55
2023-01-19T12:59:00.828Z,25.95
2023-01-19T13:01:13.985Z,27.60
2023-01-19T13:03:18.138Z,27.63
2023-01-19T13:05:42.915Z,27.55
2023-01-19T13:08:02.688Z,33.58
2023-01-19T13:12:25.272Z,26.08
2023-01-19T13:14:38.026Z,30.52
2023-01-19T13:16:39.346Z,29.20
2023-01-19T13:18:43.754Z,35.10
2023-01-19T13:20:52.869Z,32.65
2023-01-19T13:23:14.507Z,30.55
2023-01-19T13:25:29.265Z,31.20
2023-01-19T13:27:30.987Z,30.13
2023-01-19T13:29:35.784Z,28.83
2023-01-19T13:31:40.221Z,33.17
2023-01-19T13:33:54.030Z,31.55
2023-01-19T13:35:59.088Z,28.95
2023-01-19T13:38:01.334Z,25.45
2023-01-19T13:40:03.597Z,30.00
2023-01-19T13:42:16.152Z,29.58
2023-01-19T13:44:25.883Z,28.52
2023-01-19T13:46:28.833Z,28.50
2023-01-19T13:48:32.125Z,33.85
2023-01-19T13:50:37.275Z,29.80
2023-01-19T13:52:43.361Z,32.72
2023-01-19T13:54:48.993Z,31.90
2023-01-19T13:56:50.438Z,35.50
2023-01-19T13:58:59.748Z,30.92
2023-01-19T14:01:01.187Z,26.98
2023-01-19T14:03:14.797Z,32.97
2023-01-19T14:05:20.909Z,31.48
2023-01-19T14:07:26.311Z,30.83
2023-01-19T14:09:27.895Z,33.88
2023-01-19T14:11:29.446Z,30.50
2023-01-19T14:13:43.108Z,31.10
2023-01-19T14:15:46.061Z,24.55
2023-01-19T14:18:11.557Z,34.42
2023-01-19T14:20:30.172Z,25.67
2023-01-19T14:22:45.551Z,23.17
2023-01-19T14:24:46.943Z,30.02
2023-01-19T14:26:53.895Z,25.27
2023-01-19T14:28:55.364Z,26.55
2023-01-19T14:31:17.322Z,30.77
2023-01-19T14:33:41.977Z,28.27
2023-01-19T14:35:43.540Z,26.33
2023-01-19T14:37:48.228Z,26.58
2023-01-19T14:40:08.022Z,21.90
2023-01-19T14:42:17.527Z,23.45
2023-01-19T14:44:28.230Z,28.15
2023-01-19T14:46:29.756Z,27.30
2023-01-19T14:48:31.317Z,25.80
2023-01-19T14:50:36.267Z,23.92
2023-01-19T14:52:41.129Z,28.48
2023-01-19T14:54:45.489Z,25.42
2023-01-19T14:56:47.769Z,26.13
2023-01-19T14:58:49.141Z,30.17
2023-01-19T15:00:55.526Z,26.02
2023-01-19T15:02:56.970Z,23.10
2023-01-19T15:04:58.395Z,23.95
2023-01-19T15:06:59.844Z,24.02
2023-01-19T15:09:01.221Z,21.88
2023-01-19T15:11:10.865Z,21.15
2023-01-19T15:13:22.091Z,22.50
2023-01-19T15:15:31.479Z,25.05
2023-01-19T15:17:32.951Z,23.10
2023-01-19T15:19:34.342Z,22.30
2023-01-19T15:21:35.723Z,20.98
2023-01-19T15:23:37.112Z,24.17
2023-01-19T15:25:39.457Z,23.60
2023-01-19T15:27:41.027Z,21.05
2023-01-19T15:29:42.690Z,20.77
2023-01-19T15:31:44.140Z,21.85
2023-01-19T15:33:45.686Z,21.90
2023-01-19T15:35:47.500Z,23.33
2023-01-19T15:37:50.124Z,18.65
2023-01-19T15:39:51.512Z,17.20
2023-01-19T15:41:53.175Z,21.60
2023-01-19T15:43:54.586Z,21.65
2023-01-19T15:46:02.546Z,26.45
2023-01-19T15:48:07.011Z,24.88
2023-01-19T15:50:09.204Z,18.48
2023-01-19T15:52:10.553Z,21.55
2023-01-19T15:54:16.318Z,22.98
2023-01-19T15:56:21.023Z,17.35
2023-01-19T15:58:23.528Z,19.85
2023-01-19T16:00:25.035Z,19.58
2023-01-19T16:02:26.452Z,15.55
2023-01-19T16:04:27.826Z,20.35
2023-01-19T16:06:30.436Z,18.45
2023-01-19T16:08:31.800Z,20.45
2023-01-19T16:10:35.012Z,19.23
2023-01-19T16:12:36.845Z,20.30
2023-01-19T16:14:38.230Z,18.10
2023-01-19T16:16:39.622Z,17.48
2023-01-19T16:18:40.985Z,27.00
2023-01-19T16:20:42.388Z,24.83
2023-01-19T16:22:43.811Z,21.88
2023-01-19T16:24:45.241Z,19.75
2023-01-19T16:26:46.609Z,22.80
2023-01-19T16:28:48.218Z,20.25
2023-01-19T16:30:49.681Z,22.30
2023-01-19T16:32:51.326Z,22.58
2023-01-19T16:34:52.676Z,18.35
2023-01-19T16:36:54.067Z,23.85
2023-01-19T16:39:02.075Z,27.15
2023-01-19T16:41:03.451Z,19.75
2023-01-19T16:43:04.934Z,23.27
2023-01-19T16:45:06.661Z,19.55
2023-01-19T16:47:08.485Z,21.70
2023-01-19T16:49:14.759Z,17.52
2023-01-19T16:51:17.914Z,21.00
2023-01-19T16:53:19.298Z,19.65
2023-01-19T16:55:20.697Z,21.38
2023-01-19T16:57:22.061Z,24.15
2023-01-19T16:59:24.502Z,23.67
2023-01-19T17:01:27.796Z,23.08
2023-01-19T17:03:29.919Z,20.67
2023-01-19T17:05:31.351Z,25.95
2023-01-19T17:07:32.747Z,22.77
2023-01-19T17:09:34.170Z,22.50
2023-01-19T17:11:36.326Z,29.45
2023-01-19T17:13:38.725Z,22.02
2023-01-19T17:15:40.375Z,20.13
2023-01-19T17:17:41.711Z,24.63
2023-01-19T17:19:44.970Z,22.15
2023-01-19T17:21:51.143Z,24.08
2023-01-19T17:23:54.251Z,26.15
2023-01-19T17:25:56.611Z,29.38
2023-01-19T17:28:01.059Z,19.42
2023-01-19T17:30:03.564Z,27.05
2023-01-19T17:32:05.194Z,30.83
2023-01-19T17:34:07.950Z,26.30
2023-01-19T17:36:13.070Z,31.70
2023-01-19T17:38:14.551Z,32.65
2023-01-19T17:40:16.276Z,22.55
2023-01-19T17:42:17.708Z,26.45
2023-01-19T17:44:19.155Z,24.33
2023-01-19T17:46:22.961Z,22.40
2023-01-19T17:48:24.349Z,29.63
2023-01-19T17:50:25.813Z,21.33
2023-01-19T17:52:27.262Z,21.95
2023-01-19T17:54:28.783Z,22.83
2023-01-19T17:56:33.009Z,24.40
2023-01-19T17:58:35.239Z,22.27
2023-01-19T18:00:36.643Z,24.35
2023-01-19T18:02:38.116Z,19.60
2023-01-19T18:04:39.990Z,22.25
2023-01-19T18:06:41.571Z,22.73
2023-01-19T18:08:46.099Z,21.13
2023-01-19T18:10:57.963Z,18.27
2023-01-19T18:12:59.333Z,20.05
2023-01-19T18:15:00.829Z,17.10
2023-01-19T18:17:02.216Z,17.40
2023-01-19T18:19:03.677Z,21.45
2023-01-19T18:21:09.380Z,20.88
2023-01-19T18:23:11.726Z,16.33
2023-01-19T18:25:13.145Z,16.48
2023-01-19T18:27:16.360Z,18.40
2023-01-19T18:29:19.236Z,16.73
2023-01-19T18:31:20.772Z,21.98
2023-01-19T18:33:22.449Z,24.08
2023-01-19T18:35:23.836Z,21.63
2023-01-19T18:37:25.266Z,25.17
2023-01-19T18:39:26.627Z,20.48
2023-01-19T18:41:29.853Z,19.67
2023-01-19T18:43:31.977Z,23.85
2023-01-19T18:45:33.441Z,19.40
2023-01-19T18:47:34.842Z,21.45
2023-01-19T18:49:36.307Z,22.42
2023-01-19T18:51:39.538Z,18.15
2023-01-19T18:53:41.406Z,24.13
2023-01-19T18:55:54.483Z,26.10
2023-01-19T18:57:55.873Z,22.20
2023-01-19T18:59:57.241Z,28.05
2023-01-19T19:02:01.357Z,23.33
2023-01-19T19:04:03.011Z,21.70
2023-01-19T19:06:04.590Z,26.30
2023-01-19T19:08:06.650Z,25.67
2023-01-19T19:10:11.808Z,20.55
2023-01-19T19:12:13.398Z,22.33
2023-01-19T19:14:14.815Z,24.25
2023-01-19T19:16:16.269Z,29.00
2023-01-19T19:18:17.966Z,26.83
2023-01-19T19:20:20.517Z,27.10
2023-01-19T19:22:23.635Z,23.95
2023-01-19T19:24:26.148Z,29.52
2023-01-19T19:26:28.338Z,24.13
2023-01-19T19:28:29.748Z,28.05
2023-01-19T19:30:34.186Z,25.95
2023-01-19T19:32:35.593Z,31.48
2023-01-19T19:34:37.119Z,31.90
2023-01-19T19:36:39.903Z,29.92
2023-01-19T19:38:42.749Z,30.08
2023-01-19T19:40:44.163Z,27.95
2023-01-19T19:42:48.529Z,30.13
2023-01-19T19:44:50.068Z,25.27
2023-01-19T19:46:51.485Z,30.10
2023-01-19T19:48:53.638Z,33.13
2023-01-19T19:50:56.051Z,30.80
2023-01-19T19:52:58.765Z,29.55
2023-01-19T19:55:00.163Z,41.38
2023-01-19T19:57:01.592Z,41.65
2023-01-19T19:59:03.560Z,32.17
2023-01-19T20:01:16.625Z,33.05
2023-01-19T20:03:18.553Z,30.95
2023-01-19T20:05:19.916Z,32.08
2023-01-19T20:07:21.307Z,35.47
2023-01-19T20:09:23.617Z,30.23
2023-01-19T20:11:28.241Z,30.42
2023-01-19T20:13:29.625Z,30.85
2023-01-19T20:15:32.097Z,32.83
2023-01-19T20:17:33.462Z,27.95
2023-01-19T20:19:34.845Z,29.85
2023-01-19T20:21:39.112Z,26.60
2023-01-19T20:23:41.376Z,25.40
2023-01-19T20:25:42.741Z,25.60
2023-01-19T20:27:45.055Z,24.45
2023-01-19T20:29:52.700Z,25.65
2023-01-19T20:31:57.049Z,24.60
2023-01-19T20:34:00.687Z,26.95
2023-01-19T20:36:02.082Z,21.92
2023-01-19T20:38:03.468Z,26.17
2023-01-19T20:40:05.160Z,28.50
2023-01-19T20:42:10.985Z,26.77
2023-01-19T20:44:15.611Z,29.67
2023-01-19T20:46:18.210Z,25.67
2023-01-19T20:48:19.633Z,29.95
2023-01-19T20:50:21.011Z,29.45
2023-01-19T20:52:22.563Z,30.13
2023-01-19T20:54:27.214Z,29.95
2023-01-19T20:56:28.675Z,29.15
2023-01-19T20:58:31.189Z,26.88
2023-01-19T21:00:33.047Z,26.05
2023-01-19T21:02:34.484Z,28.08
2023-01-19T21:04:35.868Z,35.90
2023-01-19T21:06:38.136Z,28.77
2023-01-19T21:08:39.873Z,27.65
2023-01-19T21:10:42.132Z,29.98
2023-01-19T21:12:44.751Z,28.02
2023-01-19T21:14:46.225Z,29.33
2023-01-19T21:16:50.799Z,31.88
2023-01-19T21:18:52.372Z,27.50
2023-01-19T21:23:27.284Z,30.27
2023-01-19T21:25:28.699Z,32.72
2023-01-19T21:27:34.140Z,32.67
2023-01-19T21:29:41.215Z,28.63
2023-01-19T21:31:44.417Z,28.83
2023-01-19T21:33:45.802Z,27.33
2023-01-19T21:35:57.552Z,28.50
2023-01-19T21:47:43.923Z,26.88
2023-01-19T21:49:45.275Z,25.42
2023-01-19T21:56:15.367Z,25.17
2023-01-19T21:58:16.767Z,25.67
2023-01-19T22:00:18.479Z,26.30
2023-01-19T22:02:37.139Z,28.85
2023-01-19T22:04:39.688Z,28.42
2023-01-19T22:06:41.041Z,24.52
2023-01-19T22:08:42.560Z,28.60
2023-01-19T22:10:43.909Z,28.38
2023-01-19T22:12:45.277Z,29.35
2023-01-19T22:14:47.922Z,30.60
2023-01-19T22:16:49.328Z,30.30
2023-01-19T22:18:59.186Z,29.55
2023-01-19T22:23:36.808Z,32.45
2023-01-19T22:25:38.198Z,28.60
2023-01-19T22:27:39.590Z,30.48
2023-01-19T22:29:40.977Z,29.60
2023-01-19T22:31:43.122Z,31.23
2023-01-19T22:33:45.414Z,29.42
2023-01-19T22:35:46.781Z,31.55
2023-01-19T22:37:53.076Z,25.23
2023-01-19T22:39:54.464Z,28.77
2023-01-19T22:41:55.810Z,32.13
2023-01-19T22:43:59.665Z,27.35
2023-01-19T22:46:01.068Z,25.15
2023-01-19T22:48:02.501Z,25.60
2023-01-19T22:50:04.100Z,29.75
2023-01-19T22:52:05.583Z,31.50
2023-01-19T22:54:07.311Z,27.30
2023-01-19T22:56:26.458Z,29.75
2023-01-19T22:58:27.793Z,28.02
2023-01-19T23:00:29.178Z,32.65
2023-01-19T23:02:30.573Z,29.52
2023-01-19T23:04:31.918Z,29.15
2023-01-19T23:06:35.615Z,26.58
2023-01-19T23:08:37.268Z,23.77
2023-01-19T23:10:40.071Z,25.00
2023-01-19T23:12:41.505Z,24.67
2023-01-19T23:14:42.977Z,22.25
2023-01-19T23:16:46.976Z,24.98
2023-01-19T23:18:52.208Z,26.48
2023-01-19T23:20:53.619Z,24.83
2023-01-19T23:22:55.053Z,24.90
2023-01-19T23:24:56.499Z,25.08
2023-01-19T23:26:57.921Z,25.00
2023-01-19T23:29:01.632Z,23.90
2023-01-19T23:31:32.692Z,23.45
2023-01-19T23:33:34.126Z,25.77
2023-01-19T23:35:35.774Z,21.92
2023-01-19T23:37:37.118Z,23.92
2023-01-19T23:39:38.542Z,27.33
2023-01-19T23:41:40.045Z,23.70
2023-01-19T23:43:41.540Z,23.35
2023-01-19T23:45:43.096Z,23.77
2023-01-19T23:47:45.050Z,27.55
2023-01-19T23:49:46.482Z,26.20
2023-01-19T23:51:47.903Z,26.38
2023-01-19T23:53:50.077Z,25.08
2023-01-19T23:55:51.511Z,25.48
2023-01-19T23:57:52.877Z,26.27
2023-01-19T23:59:54.310Z,24.83
